sensor_id;sensor_type;location;lat;lon;timestamp;P1;durP1;ratioP1;P2;durP2;ratioP2
6280;SDS011;3173;48.204;11.612;2023-03-19T00:00:19;18.20;;;8.50;;
6280;SDS011;3173;48.204;11.612;2023-03-19T00:02:45;14.50;;;7.83;;
6280;SDS011;3173;48.204;11.612;2023-03-19T00:05:15;19.03;;;7.50;;
6280;SDS011;3173;48.204;11.612;2023-03-19T00:07:42;17.80;;;8.40;;
6280;SDS011;3173;48.204;11.612;2023-03-19T00:10:08;14.30;;;7.43;;
6280;SDS011;3173;48.204;11.612;2023-03-19T00:12:34;15.70;;;7.50;;
6280;SDS011;3173;48.204;11.612;2023-03-19T00:15:01;21.00;;;8.77;;
6280;SDS011;3173;48.204;11.612;2023-03-19T00:17:27;14.90;;;8.70;;
6280;SDS011;3173;48.204;11.612;2023-03-19T00:19:53;20.53;;;7.70;;
6280;SDS011;3173;48.204;11.612;2023-03-19T00:22:20;18.97;;;8.50;;
6280;SDS011;3173;48.204;11.612;2023-03-19T00:24:46;20.33;;;8.60;;
6280;SDS011;3173;48.204;11.612;2023-03-19T00:27:12;18.10;;;9.60;;
6280;SDS011;3173;48.204;11.612;2023-03-19T00:29:38;19.93;;;7.80;;
6280;SDS011;3173;48.204;11.612;2023-03-19T00:32:05;13.07;;;8.50;;
6280;SDS011;3173;48.204;11.612;2023-03-19T00:34:32;12.40;;;7.50;;
6280;SDS011;3173;48.204;11.612;2023-03-19T00:36:58;16.93;;;8.40;;
6280;SDS011;3173;48.204;11.612;2023-03-19T00:39:24;17.23;;;8.40;;
6280;SDS011;3173;48.204;11.612;2023-03-19T00:41:50;16.67;;;8.63;;
6280;SDS011;3173;48.204;11.612;2023-03-19T00:44:17;15.90;;;8.27;;
6280;SDS011;3173;48.204;11.612;2023-03-19T00:46:44;13.37;;;7.63;;
6280;SDS011;3173;48.204;11.612;2023-03-19T00:49:10;11.83;;;7.70;;
6280;SDS011;3173;48.204;11.612;2023-03-19T00:51:36;14.90;;;8.57;;
6280;SDS011;3173;48.204;11.612;2023-03-19T00:54:02;13.07;;;7.87;;
6280;SDS011;3173;48.204;11.612;2023-03-19T00:56:28;15.10;;;8.50;;
6280;SDS011;3173;48.204;11.612;2023-03-19T00:58:55;17.40;;;8.53;;
6280;SDS011;3173;48.204;11.612;2023-03-19T01:01:21;17.17;;;7.70;;
6280;SDS011;3173;48.204;11.612;2023-03-19T01:03:47;20.03;;;8.13;;
6280;SDS011;3173;48.204;11.612;2023-03-19T01:06:13;15.00;;;8.27;;
6280;SDS011;3173;48.204;11.612;2023-03-19T01:08:40;16.50;;;8.70;;
6280;SDS011;3173;48.204;11.612;2023-03-19T01:11:07;16.67;;;7.87;;
6280;SDS011;3173;48.204;11.612;2023-03-19T01:13:34;12.90;;;7.40;;
6280;SDS011;3173;48.204;11.612;2023-03-19T01:16:00;17.47;;;8.30;;
6280;SDS011;3173;48.204;11.612;2023-03-19T01:18:26;19.60;;;9.27;;
6280;SDS011;3173;48.204;11.612;2023-03-19T01:20:52;15.83;;;8.90;;
6280;SDS011;3173;48.204;11.612;2023-03-19T01:23:18;16.53;;;8.27;;
6280;SDS011;3173;48.204;11.612;2023-03-19T01:25:46;19.57;;;9.03;;
6280;SDS011;3173;48.204;11.612;2023-03-19T01:28:12;17.90;;;9.10;;
6280;SDS011;3173;48.204;11.612;2023-03-19T01:30:38;22.87;;;8.67;;
6280;SDS011;3173;48.204;11.612;2023-03-19T01:33:05;15.83;;;8.70;;
6280;SDS011;3173;48.204;11.612;2023-03-19T01:35:31;14.77;;;8.43;;
6280;SDS011;3173;48.204;11.612;2023-03-19T01:37:58;25.53;;;8.90;;
6280;SDS011;3173;48.204;11.612;2023-03-19T01:40:24;24.30;;;9.20;;
6280;SDS011;3173;48.204;11.612;2023-03-19T01:45:37;22.40;;;9.00;;
6280;SDS011;3173;48.204;11.612;2023-03-19T01:48:03;15.70;;;8.70;;
6280;SDS011;3173;48.204;11.612;2023-03-19T01:50:33;14.30;;;8.53;;
6280;SDS011;3173;48.204;11.612;2023-03-19T01:53:02;14.47;;;8.77;;
6280;SDS011;3173;48.204;11.612;2023-03-19T01:55:28;14.67;;;8.40;;
6280;SDS011;3173;48.204;11.612;2023-03-19T01:57:55;15.27;;;8.50;;
6280;SDS011;3173;48.204;11.612;2023-03-19T02:00:22;17.40;;;9.00;;
6280;SDS011;3173;48.204;11.612;2023-03-19T02:02:49;17.03;;;8.43;;
6280;SDS011;3173;48.204;11.612;2023-03-19T02:05:17;23.37;;;10.57;;
6280;SDS011;3173;48.204;11.612;2023-03-19T02:07:49;20.20;;;9.00;;
6280;SDS011;3173;48.204;11.612;2023-03-19T02:10:17;16.23;;;8.53;;
6280;SDS011;3173;48.204;11.612;2023-03-19T02:12:44;17.10;;;8.70;;
6280;SDS011;3173;48.204;11.612;2023-03-19T02:15:10;14.80;;;8.00;;
6280;SDS011;3173;48.204;11.612;2023-03-19T02:17:37;21.97;;;8.60;;
6280;SDS011;3173;48.204;11.612;2023-03-19T02:20:07;23.37;;;9.10;;
6280;SDS011;3173;48.204;11.612;2023-03-19T02:22:38;20.40;;;8.40;;
6280;SDS011;3173;48.204;11.612;2023-03-19T02:25:18;13.73;;;8.70;;
6280;SDS011;3173;48.204;11.612;2023-03-19T02:27:46;17.87;;;9.50;;
6280;SDS011;3173;48.204;11.612;2023-03-19T02:30:26;23.97;;;10.30;;
6280;SDS011;3173;48.204;11.612;2023-03-19T02:32:52;25.73;;;9.00;;
6280;SDS011;3173;48.204;11.612;2023-03-19T02:35:18;14.20;;;8.43;;
6280;SDS011;3173;48.204;11.612;2023-03-19T02:37:44;19.40;;;10.67;;
6280;SDS011;3173;48.204;11.612;2023-03-19T02:40:16;18.10;;;8.10;;
6280;SDS011;3173;48.204;11.612;2023-03-19T02:42:44;17.43;;;8.00;;
6280;SDS011;3173;48.204;11.612;2023-03-19T02:45:10;15.50;;;8.90;;
6280;SDS011;3173;48.204;11.612;2023-03-19T02:47:37;13.20;;;7.97;;
6280;SDS011;3173;48.204;11.612;2023-03-19T02:50:03;14.37;;;8.83;;
6280;SDS011;3173;48.204;11.612;2023-03-19T02:52:29;14.63;;;8.47;;
6280;SDS011;3173;48.204;11.612;2023-03-19T02:54:55;13.83;;;8.33;;
6280;SDS011;3173;48.204;11.612;2023-03-19T02:57:21;16.10;;;9.43;;
6280;SDS011;3173;48.204;11.612;2023-03-19T02:59:47;14.53;;;8.17;;
6280;SDS011;3173;48.204;11.612;2023-03-19T03:02:13;16.67;;;8.33;;
6280;SDS011;3173;48.204;11.612;2023-03-19T03:04:39;18.33;;;9.37;;
6280;SDS011;3173;48.204;11.612;2023-03-19T03:07:05;19.27;;;8.90;;
6280;SDS011;3173;48.204;11.612;2023-03-19T03:09:32;13.77;;;8.10;;
6280;SDS011;3173;48.204;11.612;2023-03-19T03:11:58;21.77;;;9.30;;
6280;SDS011;3173;48.204;11.612;2023-03-19T03:14:25;13.77;;;8.23;;
6280;SDS011;3173;48.204;11.612;2023-03-19T03:16:51;13.50;;;8.50;;
6280;SDS011;3173;48.204;11.612;2023-03-19T03:19:17;13.83;;;8.30;;
6280;SDS011;3173;48.204;11.612;2023-03-19T03:21:44;14.03;;;8.20;;
6280;SDS011;3173;48.204;11.612;2023-03-19T03:24:10;14.27;;;8.93;;
6280;SDS011;3173;48.204;11.612;2023-03-19T03:26:36;13.30;;;8.00;;
6280;SDS011;3173;48.204;11.612;2023-03-19T03:29:06;16.83;;;8.93;;
6280;SDS011;3173;48.204;11.612;2023-03-19T03:31:32;20.07;;;8.20;;
6280;SDS011;3173;48.204;11.612;2023-03-19T03:33:59;15.97;;;7.33;;
6280;SDS011;3173;48.204;11.612;2023-03-19T03:36:25;19.67;;;7.70;;
6280;SDS011;3173;48.204;11.612;2023-03-19T03:38:51;12.70;;;7.33;;
6280;SDS011;3173;48.204;11.612;2023-03-19T03:41:18;14.00;;;7.47;;
6280;SDS011;3173;48.204;11.612;2023-03-19T03:43:44;15.57;;;8.17;;
6280;SDS011;3173;48.204;11.612;2023-03-19T03:46:10;12.47;;;7.50;;
6280;SDS011;3173;48.204;11.612;2023-03-19T03:48:36;15.50;;;8.00;;
6280;SDS011;3173;48.204;11.612;2023-03-19T03:51:02;16.53;;;8.67;;
6280;SDS011;3173;48.204;11.612;2023-03-19T03:53:28;13.23;;;7.47;;
6280;SDS011;3173;48.204;11.612;2023-03-19T03:55:54;12.93;;;6.53;;
6280;SDS011;3173;48.204;11.612;2023-03-19T03:58:21;18.07;;;7.77;;
6280;SDS011;3173;48.204;11.612;2023-03-19T04:00:48;11.63;;;6.23;;
6280;SDS011;3173;48.204;11.612;2023-03-19T04:03:14;9.83;;;6.97;;
6280;SDS011;3173;48.204;11.612;2023-03-19T04:05:42;10.03;;;6.40;;
6280;SDS011;3173;48.204;11.612;2023-03-19T04:08:08;17.37;;;6.43;;
6280;SDS011;3173;48.204;11.612;2023-03-19T04:10:35;9.10;;;6.13;;
6280;SDS011;3173;48.204;11.612;2023-03-19T04:13:04;12.03;;;6.20;;
6280;SDS011;3173;48.204;11.612;2023-03-19T04:15:30;10.87;;;6.63;;
6280;SDS011;3173;48.204;11.612;2023-03-19T04:17:56;9.57;;;5.30;;
6280;SDS011;3173;48.204;11.612;2023-03-19T04:20:22;10.10;;;6.57;;
6280;SDS011;3173;48.204;11.612;2023-03-19T04:22:49;12.43;;;6.00;;
6280;SDS011;3173;48.204;11.612;2023-03-19T04:25:16;14.47;;;5.80;;
6280;SDS011;3173;48.204;11.612;2023-03-19T04:27:42;13.60;;;6.00;;
6280;SDS011;3173;48.204;11.612;2023-03-19T04:30:09;15.47;;;6.97;;
6280;SDS011;3173;48.204;11.612;2023-03-19T04:32:35;12.77;;;6.17;;
6280;SDS011;3173;48.204;11.612;2023-03-19T04:35:02;12.50;;;6.20;;
6280;SDS011;3173;48.204;11.612;2023-03-19T04:37:28;11.33;;;6.27;;
6280;SDS011;3173;48.204;11.612;2023-03-19T04:39:54;8.83;;;5.40;;
6280;SDS011;3173;48.204;11.612;2023-03-19T04:42:21;16.20;;;5.50;;
6280;SDS011;3173;48.204;11.612;2023-03-19T04:44:47;11.10;;;5.93;;
6280;SDS011;3173;48.204;11.612;2023-03-19T04:47:13;9.67;;;5.20;;
6280;SDS011;3173;48.204;11.612;2023-03-19T04:49:39;8.57;;;6.07;;
6280;SDS011;3173;48.204;11.612;2023-03-19T04:52:06;19.90;;;5.83;;
6280;SDS011;3173;48.204;11.612;2023-03-19T04:54:33;8.53;;;5.00;;
6280;SDS011;3173;48.204;11.612;2023-03-19T04:56:59;12.10;;;6.03;;
6280;SDS011;3173;48.204;11.612;2023-03-19T04:59:25;11.30;;;5.40;;
6280;SDS011;3173;48.204;11.612;2023-03-19T05:01:51;9.90;;;6.03;;
6280;SDS011;3173;48.204;11.612;2023-03-19T05:04:18;9.03;;;5.70;;
6280;SDS011;3173;48.204;11.612;2023-03-19T05:06:44;11.00;;;5.80;;
6280;SDS011;3173;48.204;11.612;2023-03-19T05:09:10;10.70;;;5.90;;
6280;SDS011;3173;48.204;11.612;2023-03-19T05:11:37;8.07;;;5.30;;
6280;SDS011;3173;48.204;11.612;2023-03-19T05:14:03;11.00;;;5.70;;
6280;SDS011;3173;48.204;11.612;2023-03-19T05:16:29;14.93;;;5.60;;
6280;SDS011;3173;48.204;11.612;2023-03-19T05:18:56;9.97;;;5.13;;
6280;SDS011;3173;48.204;11.612;2023-03-19T05:21:22;11.37;;;5.90;;
6280;SDS011;3173;48.204;11.612;2023-03-19T05:23:48;11.70;;;5.60;;
6280;SDS011;3173;48.204;11.612;2023-03-19T05:26:17;8.90;;;4.80;;
6280;SDS011;3173;48.204;11.612;2023-03-19T05:28:43;11.30;;;6.03;;
6280;SDS011;3173;48.204;11.612;2023-03-19T05:31:09;9.53;;;5.53;;
6280;SDS011;3173;48.204;11.612;2023-03-19T05:33:35;8.23;;;4.90;;
6280;SDS011;3173;48.204;11.612;2023-03-19T05:36:01;17.37;;;5.80;;
6280;SDS011;3173;48.204;11.612;2023-03-19T05:38:27;8.40;;;5.23;;
6280;SDS011;3173;48.204;11.612;2023-03-19T05:40:53;12.43;;;5.43;;
6280;SDS011;3173;48.204;11.612;2023-03-19T05:43:20;12.13;;;5.27;;
6280;SDS011;3173;48.204;11.612;2023-03-19T05:45:49;11.90;;;5.80;;
6280;SDS011;3173;48.204;11.612;2023-03-19T05:48:19;8.07;;;4.90;;
6280;SDS011;3173;48.204;11.612;2023-03-19T05:50:45;11.20;;;5.80;;
6280;SDS011;3173;48.204;11.612;2023-03-19T05:53:11;12.10;;;6.57;;
6280;SDS011;3173;48.204;11.612;2023-03-19T05:55:37;14.63;;;6.37;;
6280;SDS011;3173;48.204;11.612;2023-03-19T05:58:04;13.00;;;6.13;;
6280;SDS011;3173;48.204;11.612;2023-03-19T06:00:31;10.27;;;6.10;;
6280;SDS011;3173;48.204;11.612;2023-03-19T06:02:57;12.80;;;5.80;;
6280;SDS011;3173;48.204;11.612;2023-03-19T06:05:23;10.40;;;6.47;;
6280;SDS011;3173;48.204;11.612;2023-03-19T06:07:49;11.93;;;6.03;;
6280;SDS011;3173;48.204;11.612;2023-03-19T06:10:16;11.60;;;6.30;;
6280;SDS011;3173;48.204;11.612;2023-03-19T06:12:42;12.23;;;6.50;;
6280;SDS011;3173;48.204;11.612;2023-03-19T06:15:08;14.87;;;6.37;;
6280;SDS011;3173;48.204;11.612;2023-03-19T06:17:35;11.60;;;6.60;;
6280;SDS011;3173;48.204;11.612;2023-03-19T06:20:01;11.67;;;6.90;;
6280;SDS011;3173;48.204;11.612;2023-03-19T06:22:27;9.30;;;5.80;;
6280;SDS011;3173;48.204;11.612;2023-03-19T06:24:53;14.13;;;6.83;;
6280;SDS011;3173;48.204;11.612;2023-03-19T06:27:19;11.37;;;5.93;;
6280;SDS011;3173;48.204;11.612;2023-03-19T06:29:45;12.00;;;6.70;;
6280;SDS011;3173;48.204;11.612;2023-03-19T06:32:11;11.47;;;7.17;;
6280;SDS011;3173;48.204;11.612;2023-03-19T06:34:38;8.73;;;6.70;;
6280;SDS011;3173;48.204;11.612;2023-03-19T06:37:04;11.30;;;6.57;;
6280;SDS011;3173;48.204;11.612;2023-03-19T06:39:31;14.67;;;6.80;;
6280;SDS011;3173;48.204;11.612;2023-03-19T06:41:57;10.90;;;7.10;;
6280;SDS011;3173;48.204;11.612;2023-03-19T06:44:23;11.70;;;7.10;;
6280;SDS011;3173;48.204;11.612;2023-03-19T06:46:49;18.73;;;7.37;;
6280;SDS011;3173;48.204;11.612;2023-03-19T06:49:16;10.63;;;6.97;;
6280;SDS011;3173;48.204;11.612;2023-03-19T06:51:42;11.40;;;6.60;;
6280;SDS011;3173;48.204;11.612;2023-03-19T06:54:08;13.10;;;7.70;;
6280;SDS011;3173;48.204;11.612;2023-03-19T06:56:34;11.20;;;6.93;;
6280;SDS011;3173;48.204;11.612;2023-03-19T06:59:00;10.83;;;7.17;;
6280;SDS011;3173;48.204;11.612;2023-03-19T07:01:27;11.27;;;7.57;;
6280;SDS011;3173;48.204;11.612;2023-03-19T07:03:53;12.70;;;7.97;;
6280;SDS011;3173;48.204;11.612;2023-03-19T07:06:21;11.67;;;6.67;;
6280;SDS011;3173;48.204;11.612;2023-03-19T07:08:47;15.90;;;8.10;;
6280;SDS011;3173;48.204;11.612;2023-03-19T07:11:13;15.03;;;7.60;;
6280;SDS011;3173;48.204;11.612;2023-03-19T07:13:40;12.97;;;7.80;;
6280;SDS011;3173;48.204;11.612;2023-03-19T07:16:07;11.60;;;7.93;;
6280;SDS011;3173;48.204;11.612;2023-03-19T07:18:33;13.43;;;7.23;;
6280;SDS011;3173;48.204;11.612;2023-03-19T07:20:59;10.80;;;6.70;;
6280;SDS011;3173;48.204;11.612;2023-03-19T07:23:26;12.67;;;7.50;;
6280;SDS011;3173;48.204;11.612;2023-03-19T07:25:52;12.23;;;7.10;;
6280;SDS011;3173;48.204;11.612;2023-03-19T07:28:18;9.50;;;6.63;;
6280;SDS011;3173;48.204;11.612;2023-03-19T07:30:44;11.50;;;7.47;;
6280;SDS011;3173;48.204;11.612;2023-03-19T07:33:10;12.40;;;6.80;;
6280;SDS011;3173;48.204;11.612;2023-03-19T07:35:36;12.37;;;6.97;;
6280;SDS011;3173;48.204;11.612;2023-03-19T07:38:03;10.03;;;7.20;;
6280;SDS011;3173;48.204;11.612;2023-03-19T07:40:29;11.70;;;6.67;;
6280;SDS011;3173;48.204;11.612;2023-03-19T07:42:55;10.90;;;6.40;;
6280;SDS011;3173;48.204;11.612;2023-03-19T07:45:21;11.73;;;6.80;;
6280;SDS011;3173;48.204;11.612;2023-03-19T07:47:50;9.73;;;6.40;;
6280;SDS011;3173;48.204;11.612;2023-03-19T07:50:17;10.90;;;6.33;;
6280;SDS011;3173;48.204;11.612;2023-03-19T07:52:47;9.57;;;6.07;;
6280;SDS011;3173;48.204;11.612;2023-03-19T07:55:13;13.17;;;5.90;;
6280;SDS011;3173;48.204;11.612;2023-03-19T07:57:39;8.73;;;5.97;;
6280;SDS011;3173;48.204;11.612;2023-03-19T08:00:06;11.30;;;5.67;;
6280;SDS011;3173;48.204;11.612;2023-03-19T08:02:32;8.03;;;5.60;;
6280;SDS011;3173;48.204;11.612;2023-03-19T08:04:58;10.73;;;5.47;;
6280;SDS011;3173;48.204;11.612;2023-03-19T08:07:26;11.07;;;5.33;;
6280;SDS011;3173;48.204;11.612;2023-03-19T08:09:52;11.10;;;5.53;;
6280;SDS011;3173;48.204;11.612;2023-03-19T08:12:18;9.13;;;5.70;;
6280;SDS011;3173;48.204;11.612;2023-03-19T08:14:45;7.77;;;5.00;;
6280;SDS011;3173;48.204;11.612;2023-03-19T08:17:11;8.20;;;4.53;;
6280;SDS011;3173;48.204;11.612;2023-03-19T08:19:37;11.03;;;4.73;;
6280;SDS011;3173;48.204;11.612;2023-03-19T08:22:03;6.80;;;4.57;;
6280;SDS011;3173;48.204;11.612;2023-03-19T08:24:30;6.23;;;4.00;;
6280;SDS011;3173;48.204;11.612;2023-03-19T08:26:56;8.30;;;4.47;;
6280;SDS011;3173;48.204;11.612;2023-03-19T08:29:22;6.73;;;3.60;;
6280;SDS011;3173;48.204;11.612;2023-03-19T08:31:50;5.30;;;3.73;;
6280;SDS011;3173;48.204;11.612;2023-03-19T08:34:16;8.93;;;4.50;;
6280;SDS011;3173;48.204;11.612;2023-03-19T08:36:42;5.27;;;3.70;;
6280;SDS011;3173;48.204;11.612;2023-03-19T08:39:08;8.70;;;3.93;;
6280;SDS011;3173;48.204;11.612;2023-03-19T08:41:34;4.43;;;3.83;;
6280;SDS011;3173;48.204;11.612;2023-03-19T08:44:00;7.10;;;3.07;;
6280;SDS011;3173;48.204;11.612;2023-03-19T08:46:26;5.87;;;3.83;;
6280;SDS011;3173;48.204;11.612;2023-03-19T08:48:53;7.20;;;4.20;;
6280;SDS011;3173;48.204;11.612;2023-03-19T08:51:19;8.10;;;3.77;;
6280;SDS011;3173;48.204;11.612;2023-03-19T08:53:45;6.57;;;4.10;;
6280;SDS011;3173;48.204;11.612;2023-03-19T08:56:11;7.10;;;4.07;;
6280;SDS011;3173;48.204;11.612;2023-03-19T08:58:37;11.30;;;3.90;;
6280;SDS011;3173;48.204;11.612;2023-03-19T09:01:06;7.60;;;3.90;;
6280;SDS011;3173;48.204;11.612;2023-03-19T09:03:34;6.93;;;3.70;;
6280;SDS011;3173;48.204;11.612;2023-03-19T09:06:00;7.77;;;4.33;;
6280;SDS011;3173;48.204;11.612;2023-03-19T09:08:27;6.80;;;3.57;;
6280;SDS011;3173;48.204;11.612;2023-03-19T09:10:53;7.97;;;4.80;;
6280;SDS011;3173;48.204;11.612;2023-03-19T09:13:20;6.50;;;3.83;;
6280;SDS011;3173;48.204;11.612;2023-03-19T09:15:45;8.13;;;3.60;;
6280;SDS011;3173;48.204;11.612;2023-03-19T09:18:11;7.20;;;4.10;;
6280;SDS011;3173;48.204;11.612;2023-03-19T09:20:37;8.97;;;4.20;;
6280;SDS011;3173;48.204;11.612;2023-03-19T09:23:03;5.90;;;3.80;;
6280;SDS011;3173;48.204;11.612;2023-03-19T09:25:29;8.10;;;4.10;;
6280;SDS011;3173;48.204;11.612;2023-03-19T09:27:55;6.87;;;3.47;;
6280;SDS011;3173;48.204;11.612;2023-03-19T09:30:22;5.10;;;3.70;;
6280;SDS011;3173;48.204;11.612;2023-03-19T09:32:47;4.23;;;3.20;;
6280;SDS011;3173;48.204;11.612;2023-03-19T09:35:13;7.97;;;4.20;;
6280;SDS011;3173;48.204;11.612;2023-03-19T09:37:39;5.63;;;3.57;;
6280;SDS011;3173;48.204;11.612;2023-03-19T09:40:06;6.00;;;4.47;;
6280;SDS011;3173;48.204;11.612;2023-03-19T09:42:44;6.30;;;3.97;;
6280;SDS011;3173;48.204;11.612;2023-03-19T09:45:14;5.80;;;3.60;;
6280;SDS011;3173;48.204;11.612;2023-03-19T09:47:41;4.70;;;3.53;;
6280;SDS011;3173;48.204;11.612;2023-03-19T09:50:12;5.70;;;3.87;;
6280;SDS011;3173;48.204;11.612;2023-03-19T09:52:46;6.77;;;3.47;;
6280;SDS011;3173;48.204;11.612;2023-03-19T09:57:52;5.00;;;3.37;;
6280;SDS011;3173;48.204;11.612;2023-03-19T10:00:24;5.23;;;3.67;;
6280;SDS011;3173;48.204;11.612;2023-03-19T10:03:03;5.73;;;3.60;;
6280;SDS011;3173;48.204;11.612;2023-03-19T10:08:16;5.33;;;3.93;;
6280;SDS011;3173;48.204;11.612;2023-03-19T10:10:50;5.10;;;3.40;;
6280;SDS011;3173;48.204;11.612;2023-03-19T10:16:06;7.33;;;3.27;;
6280;SDS011;3173;48.204;11.612;2023-03-19T10:18:36;6.13;;;3.57;;
6280;SDS011;3173;48.204;11.612;2023-03-19T10:21:08;5.87;;;3.20;;
6280;SDS011;3173;48.204;11.612;2023-03-19T10:26:03;2.83;;;2.20;;
6280;SDS011;3173;48.204;11.612;2023-03-19T10:28:29;5.87;;;3.17;;
6280;SDS011;3173;48.204;11.612;2023-03-19T10:33:34;7.13;;;2.70;;
6280;SDS011;3173;48.204;11.612;2023-03-19T10:36:02;4.33;;;2.57;;
6280;SDS011;3173;48.204;11.612;2023-03-19T10:38:30;3.77;;;2.50;;
6280;SDS011;3173;48.204;11.612;2023-03-19T10:43:42;4.43;;;2.33;;
6280;SDS011;3173;48.204;11.612;2023-03-19T10:46:13;4.33;;;2.70;;
6280;SDS011;3173;48.204;11.612;2023-03-19T10:48:44;4.00;;;2.70;;
6280;SDS011;3173;48.204;11.612;2023-03-19T10:51:14;5.07;;;2.40;;
6280;SDS011;3173;48.204;11.612;2023-03-19T10:53:41;4.10;;;2.23;;
6280;SDS011;3173;48.204;11.612;2023-03-19T10:56:17;3.00;;;2.10;;
6280;SDS011;3173;48.204;11.612;2023-03-19T10:59:00;5.93;;;2.00;;
6280;SDS011;3173;48.204;11.612;2023-03-19T11:01:27;3.73;;;2.37;;
6280;SDS011;3173;48.204;11.612;2023-03-19T11:03:57;5.13;;;2.10;;
6280;SDS011;3173;48.204;11.612;2023-03-19T11:08:51;3.80;;;2.20;;
6280;SDS011;3173;48.204;11.612;2023-03-19T11:11:35;3.20;;;2.07;;
6280;SDS011;3173;48.204;11.612;2023-03-19T11:14:06;4.43;;;2.43;;
6280;SDS011;3173;48.204;11.612;2023-03-19T11:16:45;4.83;;;2.27;;
6280;SDS011;3173;48.204;11.612;2023-03-19T11:19:15;5.70;;;2.93;;
6280;SDS011;3173;48.204;11.612;2023-03-19T11:21:44;3.20;;;2.13;;
6280;SDS011;3173;48.204;11.612;2023-03-19T11:24:18;6.10;;;3.43;;
6280;SDS011;3173;48.204;11.612;2023-03-19T11:26:51;5.67;;;2.20;;
6280;SDS011;3173;48.204;11.612;2023-03-19T11:29:19;5.43;;;2.10;;
6280;SDS011;3173;48.204;11.612;2023-03-19T11:31:48;4.67;;;2.27;;
6280;SDS011;3173;48.204;11.612;2023-03-19T11:44:28;5.50;;;2.27;;
6280;SDS011;3173;48.204;11.612;2023-03-19T11:47:06;3.77;;;1.87;;
6280;SDS011;3173;48.204;11.612;2023-03-19T11:56:55;4.50;;;2.20;;
6280;SDS011;3173;48.204;11.612;2023-03-19T12:04:25;5.60;;;2.27;;
6280;SDS011;3173;48.204;11.612;2023-03-19T12:12:20;5.27;;;2.73;;
6280;SDS011;3173;48.204;11.612;2023-03-19T12:15:04;4.27;;;1.93;;
6280;SDS011;3173;48.204;11.612;2023-03-19T12:22:40;6.83;;;2.63;;
6280;SDS011;3173;48.204;11.612;2023-03-19T12:27:38;4.43;;;1.90;;
6280;SDS011;3173;48.204;11.612;2023-03-19T12:33:09;3.40;;;1.80;;
6280;SDS011;3173;48.204;11.612;2023-03-19T12:35:36;8.50;;;2.40;;
6280;SDS011;3173;48.204;11.612;2023-03-19T12:40:34;7.30;;;2.23;;
6280;SDS011;3173;48.204;11.612;2023-03-19T12:43:03;6.40;;;1.53;;
6280;SDS011;3173;48.204;11.612;2023-03-19T12:45:35;4.47;;;2.07;;
6280;SDS011;3173;48.204;11.612;2023-03-19T12:48:24;3.87;;;2.70;;
6280;SDS011;3173;48.204;11.612;2023-03-19T12:50:49;3.97;;;2.10;;
6280;SDS011;3173;48.204;11.612;2023-03-19T12:53:26;3.73;;;2.13;;
6280;SDS011;3173;48.204;11.612;2023-03-19T12:55:54;4.70;;;2.03;;
6280;SDS011;3173;48.204;11.612;2023-03-19T12:58:36;6.03;;;1.90;;
6280;SDS011;3173;48.204;11.612;2023-03-19T13:01:10;4.17;;;2.03;;
6280;SDS011;3173;48.204;11.612;2023-03-19T13:03:41;3.87;;;2.40;;
6280;SDS011;3173;48.204;11.612;2023-03-19T13:06:12;3.60;;;2.20;;
6280;SDS011;3173;48.204;11.612;2023-03-19T13:08:42;3.90;;;1.73;;
6280;SDS011;3173;48.204;11.612;2023-03-19T13:11:11;3.40;;;1.63;;
6280;SDS011;3173;48.204;11.612;2023-03-19T13:13:42;5.43;;;2.10;;
6280;SDS011;3173;48.204;11.612;2023-03-19T13:19:01;5.50;;;2.77;;
6280;SDS011;3173;48.204;11.612;2023-03-19T13:21:31;4.47;;;2.03;;
6280;SDS011;3173;48.204;11.612;2023-03-19T13:26:25;5.53;;;2.83;;
6280;SDS011;3173;48.204;11.612;2023-03-19T13:29:33;4.73;;;2.30;;
6280;SDS011;3173;48.204;11.612;2023-03-19T13:31:41;2.80;;;1.70;;
6280;SDS011;3173;48.204;11.612;2023-03-19T13:36:44;2.97;;;1.70;;
6280;SDS011;3173;48.204;11.612;2023-03-19T13:39:15;2.60;;;1.80;;
6280;SDS011;3173;48.204;11.612;2023-03-19T13:44:23;3.30;;;1.90;;
6280;SDS011;3173;48.204;11.612;2023-03-19T13:46:52;3.17;;;2.07;;
6280;SDS011;3173;48.204;11.612;2023-03-19T13:51:47;4.20;;;1.67;;
6280;SDS011;3173;48.204;11.612;2023-03-19T13:54:14;5.77;;;1.97;;
6280;SDS011;3173;48.204;11.612;2023-03-19T13:59:35;3.87;;;2.10;;
6280;SDS011;3173;48.204;11.612;2023-03-19T14:04:55;6.20;;;2.30;;
6280;SDS011;3173;48.204;11.612;2023-03-19T14:07:23;4.37;;;2.57;;
6280;SDS011;3173;48.204;11.612;2023-03-19T14:10:13;5.20;;;2.50;;
6280;SDS011;3173;48.204;11.612;2023-03-19T14:12:40;5.50;;;2.40;;
6280;SDS011;3173;48.204;11.612;2023-03-19T14:17:35;4.10;;;3.07;;
6280;SDS011;3173;48.204;11.612;2023-03-19T14:20:03;4.83;;;2.27;;
6280;SDS011;3173;48.204;11.612;2023-03-19T14:22:34;4.20;;;1.80;;
6280;SDS011;3173;48.204;11.612;2023-03-19T14:27:28;2.20;;;1.50;;
6280;SDS011;3173;48.204;11.612;2023-03-19T14:29:56;2.27;;;1.40;;
6280;SDS011;3173;48.204;11.612;2023-03-19T14:32:24;2.43;;;1.30;;
6280;SDS011;3173;48.204;11.612;2023-03-19T14:34:53;4.87;;;2.00;;
6280;SDS011;3173;48.204;11.612;2023-03-19T14:39:48;3.40;;;1.80;;
6280;SDS011;3173;48.204;11.612;2023-03-19T14:42:31;3.57;;;1.60;;
6280;SDS011;3173;48.204;11.612;2023-03-19T14:52:40;3.20;;;1.50;;
6280;SDS011;3173;48.204;11.612;2023-03-19T14:55:09;2.10;;;1.20;;
6280;SDS011;3173;48.204;11.612;2023-03-19T14:57:36;2.50;;;1.40;;
6280;SDS011;3173;48.204;11.612;2023-03-19T15:00:03;3.63;;;1.80;;
6280;SDS011;3173;48.204;11.612;2023-03-19T15:02:44;4.70;;;2.00;;
6280;SDS011;3173;48.204;11.612;2023-03-19T15:05:17;3.30;;;1.57;;
6280;SDS011;3173;48.204;11.612;2023-03-19T15:07:46;32.30;;;13.13;;
6280;SDS011;3173;48.204;11.612;2023-03-19T15:10:31;39.80;;;15.27;;
6280;SDS011;3173;48.204;11.612;2023-03-19T15:18:08;4.87;;;2.07;;
6280;SDS011;3173;48.204;11.612;2023-03-19T15:20:36;3.20;;;1.50;;
6280;SDS011;3173;48.204;11.612;2023-03-19T15:23:04;2.87;;;1.53;;
6280;SDS011;3173;48.204;11.612;2023-03-19T15:25:31;6.73;;;1.90;;
6280;SDS011;3173;48.204;11.612;2023-03-19T15:28:04;7.53;;;1.97;;
6280;SDS011;3173;48.204;11.612;2023-03-19T15:30:31;2.67;;;1.70;;
6280;SDS011;3173;48.204;11.612;2023-03-19T15:32:57;3.40;;;1.80;;
6280;SDS011;3173;48.204;11.612;2023-03-19T15:35:24;3.17;;;1.63;;
6280;SDS011;3173;48.204;11.612;2023-03-19T15:37:52;3.87;;;1.83;;
6280;SDS011;3173;48.204;11.612;2023-03-19T15:40:21;3.90;;;2.40;;
6280;SDS011;3173;48.204;11.612;2023-03-19T15:42:48;4.20;;;2.30;;
6280;SDS011;3173;48.204;11.612;2023-03-19T15:45:16;4.20;;;2.13;;
6280;SDS011;3173;48.204;11.612;2023-03-19T15:47:47;4.67;;;1.90;;
6280;SDS011;3173;48.204;11.612;2023-03-19T15:50:15;2.63;;;1.80;;
6280;SDS011;3173;48.204;11.612;2023-03-19T15:52:42;5.17;;;2.30;;
6280;SDS011;3173;48.204;11.612;2023-03-19T15:55:10;3.40;;;2.10;;
6280;SDS011;3173;48.204;11.612;2023-03-19T15:57:37;5.33;;;2.10;;
6280;SDS011;3173;48.204;11.612;2023-03-19T16:00:06;4.27;;;1.93;;
6280;SDS011;3173;48.204;11.612;2023-03-19T16:02:33;4.37;;;2.00;;
6280;SDS011;3173;48.204;11.612;2023-03-19T16:05:00;4.10;;;2.27;;
6280;SDS011;3173;48.204;11.612;2023-03-19T16:09:56;4.83;;;1.97;;
6280;SDS011;3173;48.204;11.612;2023-03-19T16:12:38;4.10;;;2.30;;
6280;SDS011;3173;48.204;11.612;2023-03-19T16:15:23;5.40;;;2.10;;
6280;SDS011;3173;48.204;11.612;2023-03-19T16:17:53;6.63;;;2.50;;
6280;SDS011;3173;48.204;11.612;2023-03-19T16:20:19;3.50;;;2.10;;
6280;SDS011;3173;48.204;11.612;2023-03-19T16:22:49;3.13;;;2.30;;
6280;SDS011;3173;48.204;11.612;2023-03-19T16:25:17;5.53;;;2.30;;
6280;SDS011;3173;48.204;11.612;2023-03-19T16:27:43;3.33;;;2.00;;
6280;SDS011;3173;48.204;11.612;2023-03-19T16:32:40;3.60;;;2.00;;
6280;SDS011;3173;48.204;11.612;2023-03-19T16:35:13;3.63;;;2.17;;
6280;SDS011;3173;48.204;11.612;2023-03-19T16:37:43;5.23;;;2.50;;
6280;SDS011;3173;48.204;11.612;2023-03-19T16:45:19;5.10;;;2.37;;
6280;SDS011;3173;48.204;11.612;2023-03-19T16:47:47;4.60;;;2.20;;
6280;SDS011;3173;48.204;11.612;2023-03-19T16:50:14;4.27;;;2.20;;